Time;durP1;ratioP1;P1;durP2;ratioP2;P2;SDS_P1;SDS_P2;PMS_P1;PMS_P2;Temp;Humidity;BMP_temperature;BMP_pressure;BME280_temperature;BME280_humidity;BME280_pressure;Samples;Min_cycle;Max_cycle;Signal;HPM_P1;HPM_P2
2022/09/28 00:00:15;;;;;;;26.45;6.43;;;;;;;12.43;66.67;99100.13;4946282;28;120073;-75
2022/09/28 00:02:41;;;;;;;31.40;6.65;;;;;;;12.43;66.74;99099.38;4946064;28;119603;-75
2022/09/28 00:05:07;;;;;;;35.28;6.70;;;;;;;12.44;67.12;99092.63;4926662;28;120840;-75
2022/09/28 00:07:32;;;;;;;24.20;6.82;;;;;;;12.49;67.18;99091.88;4937297;28;120193;-75
2022/09/28 00:09:58;;;;;;;33.15;8.23;;;;;;;12.54;67.58;99091.16;4945402;28;120014;-75
2022/09/28 00:12:24;;;;;;;43.50;9.05;;;;;;;12.57;67.92;99090.13;4948497;28;120041;-75
2022/09/28 00:14:50;;;;;;;37.15;8.88;;;;;;;12.60;67.02;99097.38;4944550;28;119916;-75
2022/09/28 00:17:15;;;;;;;46.17;8.87;;;;;;;12.63;67.19;99090.13;4939158;28;119757;-75
2022/09/28 00:19:47;;;;;;;38.20;9.30;;;;;;;12.64;67.75;99088.88;4959385;28;119654;-74
2022/09/28 00:22:12;;;;;;;40.90;8.88;;;;;;;12.65;67.06;99087.63;4944935;28;119615;-75
2022/09/28 00:24:38;;;;;;;36.70;9.82;;;;;;;12.66;67.01;99092.63;4940753;28;119841;-75
2022/09/28 00:27:04;;;;;;;43.55;9.32;;;;;;;12.65;66.97;99091.13;4945237;28;119639;-75
2022/09/28 00:29:33;;;;;;;30.90;8.55;;;;;;;12.63;66.74;99079.88;4946159;28;119625;-75
2022/09/28 00:32:02;;;;;;;40.63;9.45;;;;;;;12.63;67.30;99082.63;4945198;28;119898;-75
2022/09/28 00:34:31;;;;;;;43.83;10.50;;;;;;;12.65;67.61;99082.88;4935342;28;120328;-75
2022/09/28 00:36:57;;;;;;;44.92;9.52;;;;;;;12.64;67.64;99075.88;4980318;28;119699;-75
2022/09/28 00:39:23;;;;;;;40.33;9.85;;;;;;;12.65;67.58;99080.13;4947703;28;119390;-75
2022/09/28 00:41:49;;;;;;;39.00;10.00;;;;;;;12.63;67.54;99068.88;4938654;28;120174;-75
2022/09/28 00:44:21;;;;;;;36.95;10.10;;;;;;;12.71;67.55;99074.59;4940220;28;120387;-75
2022/09/28 00:46:53;;;;;;;21.50;8.55;;;;;;;12.69;67.38;99066.84;4948967;28;120612;-75
2022/09/28 00:49:26;;;;;;;26.50;8.57;;;;;;;12.69;66.73;99069.59;4958719;28;119464;-74
2022/09/28 00:51:53;;;;;;;32.97;8.80;;;;;;;12.73;67.15;99072.09;4946001;28;120861;-75
2022/09/28 00:54:19;;;;;;;32.80;9.60;;;;;;;12.73;67.00;99072.09;4947754;28;120343;-75
2022/09/28 00:56:47;;;;;;;45.67;10.40;;;;;;;12.71;67.40;99067.09;4944990;28;119864;-75
2022/09/28 00:59:13;;;;;;;43.22;10.65;;;;;;;12.75;67.33;99070.34;4978372;28;119732;-75
2022/09/28 01:01:39;;;;;;;48.67;10.35;;;;;;;12.76;67.12;99071.81;4945431;28;119795;-74
2022/09/28 01:04:06;;;;;;;26.52;10.13;;;;;;;12.74;67.48;99063.34;4944613;28;119965;-75
2022/09/28 01:06:34;;;;;;;48.97;10.70;;;;;;;12.77;67.33;99062.31;4928999;28;119963;-75
2022/09/28 01:09:07;;;;;;;41.00;11.30;;;;;;;12.82;68.11;99063.59;4943141;28;119802;-75
2022/09/28 01:11:36;;;;;;;29.20;11.00;;;;;;;12.80;67.92;99060.59;4928225;28;121036;-75
2022/09/28 01:14:07;;;;;;;24.80;8.00;;;;;;;12.84;66.46;99064.56;4928470;28;119601;-75
2022/09/28 01:16:43;;;;;;;26.67;8.30;;;;;;;12.81;65.87;99068.34;4947305;28;120583;-75
2022/09/28 01:19:50;;;;;;;35.95;8.77;;;;;;;12.77;66.80;99067.81;4945860;28;119926;-75
2022/09/28 01:22:25;;;;;;;16.67;7.43;;;;;;;12.73;66.11;99067.34;4944661;28;119691;-75
2022/09/28 01:25:06;;;;;;;40.42;9.20;;;;;;;12.69;66.37;99066.84;4944544;28;119749;-75
2022/09/28 01:27:41;;;;;;;36.47;9.48;;;;;;;12.60;66.77;99059.63;4945582;28;120008;-75
2022/09/28 01:30:10;;;;;;;39.50;10.90;;;;;;;12.66;67.42;99069.88;4946149;28;119408;-75
2022/09/28 01:32:54;;;;;;;41.10;10.70;;;;;;;12.67;67.29;99072.09;4946977;28;119826;-75
2022/09/28 01:35:23;;;;;;;46.90;10.45;;;;;;;12.67;67.41;99066.59;4921471;28;119474;-75
2022/09/28 01:38:11;;;;;;;28.92;9.73;;;;;;;12.69;67.68;99066.84;4945791;28;119493;-75
2022/09/28 01:40:38;;;;;;;33.10;10.37;;;;;;;12.70;67.35;99051.84;4949569;28;119486;-75
2022/09/28 01:43:16;;;;;;;45.88;11.43;;;;;;;12.69;67.54;99057.84;4946485;28;119434;-75
2022/09/28 01:45:50;;;;;;;54.33;11.35;;;;;;;12.65;67.45;99054.63;4945409;28;120354;-75
2022/09/28 01:48:29;;;;;;;51.50;11.37;;;;;;;12.67;67.55;99055.59;4946108;28;119884;-75
2022/09/28 01:50:59;;;;;;;50.43;10.83;;;;;;;12.66;67.64;99062.34;4944998;28;120252;-75
2022/09/28 01:53:35;;;;;;;39.00;10.50;;;;;;;12.68;67.45;99065.34;4947442;28;120142;-75
2022/09/28 01:56:14;;;;;;;33.97;10.63;;;;;;;12.71;67.71;99053.34;4946007;28;119766;-75
2022/09/28 01:58:52;;;;;;;25.33;8.73;;;;;;;12.68;66.94;99048.84;4945083;28;119652;-75
2022/09/28 02:01:26;;;;;;;44.05;11.43;;;;;;;12.72;67.27;99051.34;4945749;28;119781;-75
2022/09/28 02:04:11;;;;;;;36.72;11.10;;;;;;;12.73;67.64;99055.59;4950862;28;120121;-75
2022/09/28 02:06:45;;;;;;;48.47;11.35;;;;;;;12.73;67.48;99059.09;4977945;28;120698;-75
2022/09/28 02:09:17;;;;;;;47.57;11.37;;;;;;;12.71;67.49;99047.09;4974923;28;120822;-75
2022/09/28 02:11:53;;;;;;;33.97;10.20;;;;;;;12.74;67.48;99052.31;4941843;28;119795;-74
2022/09/28 02:14:20;;;;;;;40.92;12.25;;;;;;;12.70;67.29;99043.59;4924253;28;122703;-75
2022/09/28 02:16:53;;;;;;;35.97;10.60;;;;;;;12.70;67.54;99046.34;4944265;28;120224;-75
2022/09/28 02:19:26;;;;;;;32.58;10.88;;;;;;;12.73;67.54;99050.84;4945711;28;119534;-75
2022/09/28 02:22:21;;;;;;;23.73;10.07;;;;;;;12.71;67.07;99047.84;4940774;28;121335;-75
2022/09/28 02:24:56;;;;;;;32.40;10.32;;;;;;;12.66;67.23;99051.34;4944843;28;120046;-75
2022/09/28 02:27:51;;;;;;;34.38;11.95;;;;;;;12.68;67.41;99050.84;4933071;28;119669;-75
2022/09/28 02:30:20;;;;;;;23.65;11.23;;;;;;;12.67;67.53;99055.59;4944952;28;120258;-75
2022/09/28 02:33:16;;;;;;;30.63;11.97;;;;;;;12.68;67.89;99057.09;4930823;28;120150;-75
2022/09/28 02:35:43;;;;;;;33.65;13.30;;;;;;;12.70;67.97;99060.09;4937369;28;119960;-75
2022/09/28 02:38:11;;;;;;;35.05;13.52;;;;;;;12.74;68.45;99057.84;4945597;28;120230;-75
2022/09/28 02:40:37;;;;;;;34.90;11.95;;;;;;;12.76;67.98;99060.06;4950696;28;119333;-75
2022/09/28 02:43:09;;;;;;;25.08;11.85;;;;;;;12.79;67.74;99059.84;4926277;28;119796;-75
2022/09/28 02:46:12;;;;;;;44.80;13.00;;;;;;;12.78;67.97;99057.59;4932061;28;120216;-75
2022/09/28 02:48:50;;;;;;;34.55;13.63;;;;;;;12.80;68.12;99066.09;4945611;28;120522;-75
2022/09/28 02:51:32;;;;;;;37.00;13.60;;;;;;;12.81;68.08;99062.84;4942724;28;120035;-75
2022/09/28 02:54:07;;;;;;;41.30;14.18;;;;;;;12.82;68.34;99056.06;4941290;28;119923;-75
2022/09/28 02:56:48;;;;;;;38.30;13.83;;;;;;;12.85;67.93;99063.31;4940699;28;120718;-75
2022/09/28 02:59:26;;;;;;;39.92;14.23;;;;;;;12.90;68.73;99059.78;4942680;28;120568;-75
2022/09/28 03:02:31;;;;;;;44.70;15.15;;;;;;;12.96;68.20;99056.28;4939737;28;119835;-75
2022/09/28 03:05:21;;;;;;;44.53;17.38;;;;;;;12.96;68.26;99051.50;4981168;28;120017;-75
2022/09/28 03:08:05;;;;;;;34.90;15.43;;;;;;;12.97;68.14;99057.75;4945938;28;119814;-75
2022/09/28 03:10:52;;;;;;;41.57;16.27;;;;;;;12.98;68.06;99053.75;4940166;28;119822;-75
2022/09/28 03:13:19;;;;;;;51.17;16.48;;;;;;;12.99;67.52;99053.25;4948321;28;120268;-75
2022/09/28 03:15:45;;;;;;;52.72;17.75;;;;;;;12.98;67.55;99054.50;4944893;28;120145;-75
2022/09/28 03:18:10;;;;;;;39.08;17.25;;;;;;;12.97;67.74;99046.75;4942780;28;119892;-75
2022/09/28 03:20:36;;;;;;;51.30;17.38;;;;;;;12.97;67.53;99049.50;4944515;28;119726;-75
2022/09/28 03:23:13;;;;;;;49.40;18.00;;;;;;;12.95;67.52;99049.28;4939792;28;119783;-75
2022/09/28 03:25:39;;;;;;;51.67;17.83;;;;;;;12.89;67.29;99046.53;4927601;28;121345;-75
2022/09/28 03:28:05;;;;;;;52.97;19.02;;;;;;;12.88;68.01;99039.53;4940965;28;119519;-75
2022/09/28 03:30:43;;;;;;;87.97;19.67;;;;;;;12.87;67.67;99043.56;4927498;28;120096;-75
2022/09/28 03:33:09;;;;;;;62.07;18.63;;;;;;;12.90;67.54;99054.28;4945515;28;120035;-75
2022/09/28 03:35:34;;;;;;;57.67;17.83;;;;;;;12.87;67.61;99054.56;4948074;28;119528;-75
2022/09/28 03:38:01;;;;;;;87.67;18.67;;;;;;;12.87;67.30;99052.56;4945795;28;119771;-75
2022/09/28 03:40:29;;;;;;;71.82;19.00;;;;;;;12.86;67.32;99053.81;4944205;28;119799;-75
2022/09/28 03:42:55;;;;;;;88.45;21.17;;;;;;;12.82;67.85;99052.56;4946623;28;121845;-75
2022/09/28 03:45:20;;;;;;;127.00;31.52;;;;;;;12.83;69.65;99051.31;4944552;28;119512;-75
2022/09/28 03:47:48;;;;;;;125.35;24.80;;;;;;;12.83;68.89;99054.06;4921729;28;120344;-74
2022/09/28 03:50:34;;;;;;;117.43;19.23;;;;;;;12.72;69.05;99054.09;4922728;28;119900;-74
2022/09/28 03:53:03;;;;;;;127.18;20.83;;;;;;;12.64;68.28;99042.88;4944558;28;119776;-74
2022/09/28 03:55:47;;;;;;;99.15;19.83;;;;;;;12.57;68.33;99049.63;4928200;28;119891;-75
2022/09/28 03:58:13;;;;;;;110.05;21.25;;;;;;;12.52;68.28;99042.13;4947633;28;119674;-75
2022/09/28 04:00:39;;;;;;;81.80;20.58;;;;;;;12.47;68.82;99045.63;4934309;28;119829;-75
2022/09/28 04:03:05;;;;;;;99.65;21.35;;;;;;;12.41;68.54;99046.91;4937250;28;120046;-75
2022/09/28 04:05:31;;;;;;;81.82;20.13;;;;;;;12.37;68.91;99049.91;4940480;28;119825;-75
2022/09/28 04:07:57;;;;;;;88.55;19.75;;;;;;;12.33;68.78;99049.41;4946956;28;119931;-74
2022/09/28 04:10:26;;;;;;;73.95;18.65;;;;;;;12.26;68.57;99053.41;4944008;28;119928;-75
2022/09/28 04:12:56;;;;;;;80.85;20.05;;;;;;;12.18;68.89;99054.41;4950710;28;120534;-75
2022/09/28 04:15:23;;;;;;;109.30;20.52;;;;;;;12.09;68.93;99049.94;4946068;28;119835;-75
2022/09/28 04:17:50;;;;;;;115.68;23.13;;;;;;;12.05;69.31;99049.41;4944572;28;119386;-75
2022/09/28 04:20:33;;;;;;;;;;;;;;;12.02;68.54;99053.16;4942589;28;119793;-75
2022/09/28 04:23:02;;;;;;;87.30;21.08;;;;;;;12.03;69.18;99057.41;4944986;28;120125;-75
2022/09/28 04:25:28;;;;;;;75.05;20.20;;;;;;;12.01;69.33;99048.16;4948941;28;120082;-75
2022/09/28 04:30:39;;;;;;;109.10;22.23;;;;;;;11.96;69.47;99053.16;4958839;28;119838;-75
2022/09/28 04:33:05;;;;;;;;;;;;;;;11.91;69.16;99059.41;4946053;28;120411;-75
2022/09/28 04:35:30;;;;;;;;;;;;;;;11.89;68.85;99052.91;4946591;28;119638;-75
2022/09/28 04:37:56;;;;;;;;;;;;;;;11.89;68.57;99055.66;4950301;28;119794;-75
2022/09/28 04:40:22;;;;;;;;;;;;;;;11.86;68.49;99056.66;4948029;28;119806;-75
2022/09/28 04:42:55;;;;;;;;;;;;;;;11.86;68.46;99059.41;4979455;28;120485;-74
2022/09/28 04:45:21;;;;;;;;;;;;;;;11.83;68.34;99055.66;4931705;28;120701;-75
2022/09/28 04:47:47;;;;;;;;;;;;;;;11.79;68.25;99059.88;4933573;28;119891;-75
2022/09/28 04:50:28;;;;;;;;;;;;;;;11.77;68.50;99067.84;4948857;28;119701;-72
2022/09/28 04:53:26;;;;;;;;;;;;;;;11.73;68.20;99064.59;4946176;28;121219;-75
2022/09/28 04:56:03;;;;;;;;;;;;;;;11.66;68.25;99066.59;4949687;28;119701;-75
2022/09/28 04:58:29;;;;;;;;;;;;;;;11.66;68.46;99068.59;4933039;28;119977;-75
2022/09/28 05:01:00;;;;;;;;;;;;;;;11.63;68.32;99064.84;4948649;28;119688;-75
2022/09/28 05:03:44;;;;;;;;;;;;;;;11.61;68.46;99072.06;4938049;28;120062;-74
2022/09/28 05:06:27;;;;;;;;;;;;;;;11.56;68.46;99065.28;4949105;28;119999;-75
2022/09/28 05:08:58;;;;;;;;;;;;;;;11.52;68.39;99070.28;4947988;28;119401;-75
2022/09/28 05:11:24;;;;;;;;;;;;;;;11.50;68.81;99067.28;4947753;28;119754;-72
2022/09/28 05:13:50;;;;;;;;;;;;;;;11.51;68.81;99063.28;4950161;28;119494;-75
2022/09/28 05:16:16;;;;;;;;;;;;;;;11.53;68.75;99063.53;4948341;28;119773;-75
2022/09/28 05:19:11;;;;;;;;;;;;;;;11.54;68.82;99067.78;4947436;28;119663;-75
2022/09/28 05:21:37;;;;;;;;;;;;;;;11.51;68.63;99066.03;4948493;28;119736;-74
2022/09/28 05:24:06;;;;;;;;;;;;;;;11.50;68.74;99061.78;4949672;28;120057;-75
2022/09/28 05:26:33;;;;;;;;;;;;;;;11.50;68.79;99064.53;4968106;28;120730;-75
2022/09/28 05:28:58;;;;;;;;;;;;;;;11.52;68.90;99062.03;4947801;28;119442;-75
2022/09/28 05:31:42;;;;;;;;;;;;;;;11.53;68.77;99063.53;4947724;28;120175;-75
2022/09/28 05:34:16;;;;;;;;;;;;;;;11.54;69.25;99062.31;4946130;28;119947;-75
2022/09/28 05:36:44;;;;;;;;;;;;;;;11.55;68.98;99060.31;4932412;28;119590;-75
2022/09/28 05:39:10;;;;;;;;;;;;;;;11.56;69.25;99065.28;4947480;28;119516;-75
2022/09/28 05:41:35;;;;;;;;;;;;;;;11.58;69.13;99060.06;4981575;28;119900;-76
2022/09/28 05:44:01;;;;;;;;;;;;;;;11.61;69.15;99064.59;4946082;28;119542;-75
2022/09/28 05:46:28;;;;;;;;;;;;;;;11.65;69.30;99056.84;4928314;28;120054;-75
2022/09/28 05:48:58;;;;;;;;;;;;;;;11.69;69.15;99059.34;4951808;28;120216;-75
2022/09/28 05:51:24;;;;;;;;;;;;;;;11.73;69.17;99050.84;4947555;28;119842;-75
2022/09/28 05:53:52;;;;;;;;;;;;;;;11.76;69.25;99056.09;4944547;28;119532;-75
2022/09/28 05:56:18;;;;;;;;;;;;;;;11.79;69.23;99051.63;4964122;28;119951;-75
2022/09/28 05:59:05;;;;;;;;;;;;;;;11.79;69.37;99055.13;4947712;28;119423;-75
2022/09/28 06:01:31;;;;;;;;;;;;;;;11.83;69.39;99060.38;4932113;28;120562;-75
2022/09/28 06:03:58;;;;;;;;;;;;;;;11.85;69.25;99061.41;4957116;28;119663;-75
2022/09/28 06:06:24;;;;;;;;;;;;;;;11.87;69.18;99056.16;4932682;28;119654;-75
2022/09/28 06:08:50;;;;;;;;;;;;;;;11.92;69.66;99062.91;4942454;28;119339;-75
2022/09/28 06:11:27;;;;;;;;;;;;;;;11.98;69.46;99060.91;4948889;28;119720;-75
2022/09/28 06:13:55;;;;;;;;;;;;;;;12.02;69.53;99058.66;4932160;28;120357;-75
2022/09/28 06:16:21;;;;;;;;;;;;;;;12.07;69.29;99063.41;4932217;28;119797;-73
2022/09/28 06:18:47;;;;;;;;;;;;;;;12.12;69.88;99059.16;4943089;28;119958;-73
2022/09/28 06:21:31;;;;;;;;;;;;;;;12.18;69.74;99049.66;4945732;28;120199;-73
2022/09/28 06:23:57;;;;;;;;;;;;;;;12.24;69.57;99053.16;4944565;28;120669;-73
2022/09/28 06:26:23;;;;;;;;;;;;;;;12.28;69.67;99056.41;4927200;28;120772;-73
2022/09/28 06:28:48;;;;;;;;;;;;;;;12.31;69.40;99056.69;4958780;28;120293;-73
2022/09/28 06:31:15;;;;;;;;;;;;;;;12.32;69.51;99053.41;4927923;28;120212;-75
2022/09/28 06:33:46;;;;;;;;;;;;;;;12.35;69.37;99063.41;4945569;28;120096;-73
2022/09/28 06:36:12;;;;;;;;;;;;;;;12.39;69.34;99054.91;4928380;28;119876;-72
2022/09/28 06:38:38;;;;;;;;;;;;;;;12.45;69.63;99066.63;4945235;28;119907;-73
2022/09/28 06:41:04;;;;;;;;;;;;;;;12.54;69.43;99066.41;4944001;28;119931;-73
2022/09/28 06:43:33;;;;;;;;;;;;;;;12.60;69.79;99070.63;4944860;28;119634;-73
2022/09/28 06:46:12;;;;;;;;;;;;;;;12.67;69.50;99072.09;4945637;28;119975;-72
2022/09/28 06:49:38;;;;;;;;;;;;;;;12.76;69.61;99077.34;4975905;28;120065;-73
2022/09/28 06:52:13;;;;;;;;;;;;;;;12.82;69.84;99083.59;4945695;28;120645;-73
2022/09/28 06:54:57;;;;;;;;;;;;;;;12.90;69.55;99084.56;4946074;28;119860;-73
2022/09/28 06:57:31;;;;;;;;;;;;;;;12.91;69.32;99083.31;4980782;28;119915;-73
2022/09/28 07:00:06;;;;;;;;;;;;;;;12.96;69.12;99092.78;4944294;28;119981;-75
2022/09/28 07:02:32;;;;;;;;;;;;;;;13.01;69.37;99083.78;4956196;28;120873;-75
2022/09/28 07:05:35;;;;;;;;;;;;;;;13.09;69.76;99097.78;4944063;28;119925;-73
2022/09/28 07:08:23;;;;;;;;;;;;;;;13.16;69.27;99097.25;4963625;28;120063;-73
2022/09/28 07:11:07;;;;;;;;;;;;;;;13.23;69.54;99093.97;4944904;28;119580;-73
2022/09/28 07:14:03;;;;;;;;;;;;;;;13.30;69.83;99107.25;4949599;28;119809;-73
2022/09/28 07:16:48;;;;;;;;;;;;;;;13.36;69.84;99110.72;4946637;28;119653;-73
2022/09/28 07:19:15;;;;;;;;;;;;;;;13.40;69.10;99105.69;4949284;28;119718;-72
2022/09/28 07:21:41;;;;;;;;;;;;;;;13.45;69.61;99110.41;4956954;28;119831;-73
2022/09/28 07:24:11;;;;;;;;;;;;;;;13.48;69.52;99112.16;4942391;28;119524;-73
2022/09/28 07:27:09;;;;;;;;;;;;;;;13.48;69.13;99112.16;4950867;28;119948;-73
2022/09/28 07:29:44;;;;;;;;;;;;;;;13.48;68.77;99122.41;4943530;28;120031;-72
2022/09/28 07:32:24;;;;;;;;;;;;;;;13.46;68.57;99122.94;4943442;28;120672;-73
2022/09/28 07:35:13;;;;;;;;;;;;;;;13.47;68.75;99123.66;4970063;28;119844;-72
2022/09/28 07:37:46;;;;;;;;;;;;;;;13.47;69.05;99129.94;4927295;28;120547;-73
2022/09/28 07:43:05;;;;;;;;;;;;;;;13.48;68.84;99131.44;4947978;28;120397;-73
2022/09/28 07:45:34;;;;;;;;;;;;;;;13.46;68.98;99133.19;4944264;28;120961;-73
2022/09/28 07:48:03;;;;;;;;;;;;;;;13.49;68.85;99129.44;4972636;28;119544;-73
2022/09/28 07:50:50;;;;;;;;;;;;;;;13.54;69.35;99136.94;4944728;28;119822;-73
2022/09/28 07:53:46;;;;;;;;;;;;;;;13.61;69.09;99141.16;4941899;28;120185;-73
2022/09/28 07:56:44;;;;;;;;;;;;;;;13.66;68.91;99140.38;4942958;28;119772;-73
2022/09/28 07:59:26;;;;;;;;;;;;;;;13.71;69.15;99136.84;4944420;28;119952;-73
2022/09/28 08:02:34;;;;;;;;;;;;;;;13.77;69.19;99143.09;4944773;28;121432;-73
2022/09/28 08:05:00;;;;;;;;;;;;;;;13.81;68.89;99143.56;4977096;28;119561;-72
2022/09/28 08:07:26;;;;;;;;;;;;;;;13.79;68.93;99141.31;4945155;28;119851;-73
2022/09/28 08:10:03;;;;;;;;;;;;;;;13.81;68.71;99146.31;4943418;28;119541;-73
2022/09/28 08:12:30;;;;;;;;;;;;;;;13.84;68.81;99142.53;4945682;28;119400;-72
2022/09/28 08:15:10;;;;;;;;;;;;;;;13.92;69.17;99137.97;4942183;28;119639;-73
2022/09/28 08:17:54;;;;;;;;;;;;;;;14.00;69.54;99144.47;4946092;28;120082;-73
2022/09/28 08:23:07;;;;;;;;;;;;;;;14.12;69.30;99151.38;4942120;28;120022;-72
2022/09/28 08:25:35;;;;;;;;;;;;;;;14.18;69.03;99147.84;4943312;28;120091;-73
2022/09/28 08:28:02;;;;;;;;;;;;;;;14.22;68.84;99153.84;4942370;28;120227;-72
2022/09/28 08:30:30;;;;;;;;;;;;;;;14.30;69.00;99152.03;4944887;28;120008;-73
2022/09/28 08:33:13;;;;;;;;;;;;;;;14.41;69.13;99157.44;4942896;28;119862;-73
2022/09/28 08:35:42;;;;;;;;;;;;;;;14.49;69.25;99158.44;4943255;28;120362;-73
2022/09/28 08:38:39;;;;;;;;;;;;;;;14.55;68.44;99159.13;4953733;28;119944;-73
2022/09/28 08:41:23;;;;;;;;;;;;;;;14.60;68.60;99160.34;4944358;28;119845;-73
2022/09/28 08:44:10;;;;;;;;;;;;;;;14.65;68.48;99159.53;4942346;28;119518;-73
2022/09/28 08:47:01;;;;;;;;;;;;;;;14.71;68.12;99168.53;4944761;28;120299;-73
2022/09/28 08:49:49;;;;;;;;;;;;;;;14.74;68.20;99171.00;4942331;28;120733;-73
2022/09/28 08:52:22;;;;;;;;;;;;;;;14.78;68.19;99169.97;4945770;28;119609;-73
2022/09/28 08:55:15;;;;;;;;;;;;;;;14.83;68.22;99166.41;4950506;28;119468;-73
2022/09/28 08:57:46;;;;;;;;;;;;;;;14.88;68.03;99171.13;4946286;28;119623;-73
2022/09/28 09:00:18;;;;;;;;;;;;;;;14.92;67.88;99169.59;4945512;28;120130;-73
2022/09/28 09:02:45;;;;;;;;;;;;;;;14.96;67.55;99170.06;4945551;28;119552;-73
2022/09/28 09:05:18;;;;;;;;;;;;;;;15.01;67.50;99179.56;4943327;28;120093;-73
2022/09/28 09:08:14;;;;;;;;;;;;;;;15.07;67.49;99176.72;4977090;28;121639;-73
2022/09/28 09:10:46;;;;;;;;;;;;;;;15.12;67.44;99175.91;4946327;28;119544;-73
2022/09/28 09:13:33;;;;;;;;;;;;;;;15.16;67.60;99166.09;4930104;28;120434;-73
2022/09/28 09:16:14;;;;;;;;;;;;;;;15.22;67.58;99177.81;4961149;28;119871;-72
2022/09/28 09:19:16;;;;;;;;;;;;;;;15.20;67.24;99171.34;4945862;28;119893;-73
2022/09/28 09:22:01;;;;;;;;;;;;;;;15.24;67.45;99182.84;4927352;28;119680;-73
2022/09/28 09:24:37;;;;;;;;;;;;;;;15.25;67.03;99184.31;4944758;28;119579;-73
2022/09/28 09:27:26;;;;;;;;;;;;;;;15.25;66.75;99185.06;4943035;28;120117;-75
2022/09/28 09:29:52;;;;;;;;;;;;;;;15.27;66.44;99187.31;4944419;28;119707;-73
2022/09/28 09:32:27;;;;;;;;;;;;;;;15.26;66.29;99186.56;4943612;28;120018;-73
2022/09/28 09:35:12;;;;;;;;;;;;;;;15.21;66.31;99190.16;4943893;28;119904;-73
2022/09/28 09:38:36;;;;;;;;;;;;;;;15.18;66.05;99190.44;4941558;28;119684;-73
2022/09/28 09:41:37;;;;;;;;;;;;;;;15.15;66.27;99191.47;4915552;28;119845;-73
2022/09/28 09:44:27;;;;;;;;;;;;;;;15.14;66.67;99199.00;4942490;28;120231;-73
2022/09/28 09:47:03;;;;;;;;;;;;;;;15.16;67.23;99199.25;4959530;28;119900;-73
2022/09/28 09:49:39;;;;;;;;;;;;;;;15.25;67.04;99200.91;4943996;28;121167;-73
2022/09/28 09:52:24;;;;;;;;;;;;;;;15.32;66.78;99198.31;4943943;28;119891;-74
2022/09/28 09:54:59;;;;;;;;;;;;;;;15.39;66.90;99197.00;4928566;28;119781;-74
2022/09/28 09:57:59;;;;;;;;;;;;;;;15.43;66.61;99197.44;4945283;28;119643;-73
2022/09/28 10:00:48;;;;;;;;;;;;;;;15.48;66.64;99193.13;4944155;28;120287;-73
2022/09/28 10:03:33;;;;;;;;;;;;;;;15.55;66.97;99203.59;4957784;28;119660;-73
2022/09/28 10:06:20;;;;;;;;;;;;;;;15.61;66.84;99199.53;4932969;28;120042;-73
2022/09/28 10:09:08;;;;;;;;;;;;;;;15.68;66.70;99198.19;4949610;28;119962;-74
2022/09/28 10:11:38;;;;;;;;;;;;;;;15.71;66.72;99202.69;4961235;28;121889;-73
2022/09/28 10:14:10;;;;;;;;;;;;;;;15.74;66.34;99201.63;4960577;28;120526;-73
2022/09/28 10:16:41;;;;;;;;;;;;;;;15.78;66.41;99202.06;4944347;28;119680;-73
2022/09/28 10:19:14;;;;;;;;;;;;;;;15.84;66.17;99199.97;4943772;28;120496;-73
2022/09/28 10:22:01;;;;;;;;;;;;;;;15.90;65.86;99200.69;4945200;28;120564;-73
2022/09/28 10:24:34;;;;;;;;;;;;;;;15.98;66.09;99206.34;4945490;28;120078;-74
2022/09/28 10:27:05;;;;;;;;;;;;;;;16.06;65.93;99203.72;4958281;28;121565;-73
2022/09/28 10:29:39;;;;;;;;;;;;;;;16.10;65.41;99209.72;4933374;28;119559;-73
2022/09/28 10:32:16;;;;;;;;;;;;;;;16.17;65.86;99209.88;4929009;28;122246;-74
2022/09/28 10:34:42;;;;;;;;;;;;;;;16.28;65.12;99206.94;4958861;28;119962;-73
2022/09/28 10:37:14;;;;;;;;;;;;;;;16.37;64.91;99213.38;4961249;28;120065;-73
2022/09/28 10:40:03;;;;;;;;;;;;;;;16.41;64.45;99220.09;4945348;28;120005;-74
2022/09/28 10:42:33;;;;;;;;;;;;;;;16.33;64.01;99196.31;4974158;28;120032;-74
2022/09/28 10:45:22;;;;;;;;;;;;;;;16.45;63.61;99219.78;4976037;28;119456;-74
2022/09/28 10:47:48;;;;;;;;;;;;;;;16.46;63.59;99216.47;4944207;28;119649;-74
2022/09/28 10:50:20;;;;;;;;;;;;;;;16.50;63.63;99222.47;4976031;28;120270;-73
2022/09/28 10:52:46;;;;;;;;;;;;;;;16.56;64.20;99219.59;4948309;28;119939;-73
2022/09/28 10:55:32;;;;;;;;;;;;;;;16.58;63.53;99225.38;4944591;28;119661;-74
2022/09/28 10:57:58;;;;;;;;;;;;;;;16.61;63.85;99224.31;4943709;28;120092;-74
2022/09/28 11:00:37;;;;;;;;;;;;;;;16.65;64.08;99227.53;4957458;28;120209;-73
2022/09/28 11:03:27;;;;;;;;;;;;;;;16.67;63.95;99219.47;4945267;28;120687;-73
2022/09/28 11:06:06;;;;;;;;;;;;;;;16.70;63.75;99228.75;4976657;28;121110;-73
2022/09/28 11:08:40;;;;;;;;;;;;;;;16.80;63.92;99222.28;4944171;28;119566;-73
2022/09/28 11:11:15;;;;;;;;;;;;;;;16.89;63.75;99226.66;4947559;28;119704;-73
2022/09/28 11:13:46;;;;;;;;;;;;;;;16.92;63.57;99220.06;4946157;28;120097;-73
2022/09/28 11:16:23;;;;;;;;;;;;;;;16.97;63.29;99222.00;4934550;28;121877;-74
2022/09/28 11:18:49;;;;;;;;;;;;;;;16.99;63.09;99227.00;4951251;28;119583;-74
2022/09/28 11:21:21;;;;;;;;;;;;;;;16.95;62.75;99223.81;4967532;28;120690;-74
2022/09/28 11:24:16;;;;;;;;;;;;;;;16.93;62.81;99232.63;4951084;28;120242;-74
2022/09/28 11:26:43;;;;;;;;;;;;;;;16.91;62.64;99231.69;4952317;28;119554;-74
2022/09/28 11:29:25;;;;;;;;;;;;;;;16.84;61.99;99225.50;4954996;28;119464;-74
2022/09/28 11:32:10;;;;;;;;;;;;;;;16.73;61.82;99220.13;4921935;28;120135;-74
2022/09/28 11:34:55;;;;;;;;;;;;;;;16.67;62.06;99233.31;4950253;28;119900;-74
2022/09/28 11:37:29;;;;;;;;;;;;;;;16.60;61.80;99228.38;4947196;28;120398;-74
2022/09/28 11:40:04;;;;;;;;;;;;;;;16.62;62.28;99236.13;4954365;28;119781;-74
2022/09/28 11:42:33;;;;;;;;;;;;;;;16.65;62.78;99241.38;4950483;28;120171;-74
2022/09/28 11:45:25;;;;;;;;;;;;;;;16.65;62.37;99240.63;4948706;28;120003;-74
2022/09/28 11:48:00;;;;;;;;;;;;;;;16.64;61.76;99241.91;4934028;28;119683;-74
2022/09/28 11:50:43;;;;;;;;;;;;;;;16.67;62.49;99236.06;4949124;28;119874;-74
2022/09/28 11:53:21;;;;;;;;;;;;;;;16.78;62.87;99241.44;4932932;28;119579;-74
2022/09/28 11:56:08;;;;;;;;;;;;;;;16.92;62.70;99233.91;4946504;28;120065;-74
2022/09/28 11:58:39;;;;;;;;;;;;;;;16.95;62.75;99224.53;4950478;28;119929;-74
2022/09/28 12:01:09;;;;;;;;;;;;;;;17.18;62.63;99233.22;4938312;28;120002;-74
2022/09/28 12:04:13;;;;;;;;;;;;;;;17.35;62.29;99238.47;4950048;28;119714;-74
2022/09/28 12:06:48;;;;;;;;;;;;;;;17.44;61.69;99233.25;4950405;28;119968;-74
2022/09/28 12:09:23;;;;;;;;;;;;;;;17.56;61.28;99236.56;4950189;28;120074;-74
2022/09/28 12:12:01;;;;;;;;;;;;;;;17.58;59.85;99227.72;4980981;28;120201;-73
2022/09/28 12:14:56;;;;;;;;;;;;;;;17.53;59.72;99240.41;4950327;28;120006;-73
2022/09/28 12:17:28;;;;;;;;;;;;;;;17.49;59.71;99231.63;4946832;28;119725;-73
2022/09/28 12:20:02;;;;;;;;;;;;;;;17.47;59.99;99234.19;4936348;28;120287;-73
2022/09/28 12:22:33;;;;;;;;;;;;;;;17.47;59.96;99228.66;4925289;28;120246;-73
2022/09/28 12:25:00;;;;;;;;;;;;;;;17.46;59.67;99232.69;4928915;28;120208;-73
2022/09/28 12:27:38;;;;;;;;;;;;;;;17.38;59.29;99229.84;4927392;28;119885;-75
2022/09/28 12:30:04;;;;;;;;;;;;;;;17.32;59.56;99228.44;4929263;28;120039;-75
2022/09/28 12:32:34;;;;;;;;;;;;;;;17.28;60.02;99233.56;4943836;28;120692;-75
2022/09/28 12:35:24;;;;;;;;;;;;;;;17.25;59.81;99229.06;4926121;28;120303;-75
2022/09/28 12:38:07;;;;;;;;;;;;;;;17.23;60.05;99231.63;4957886;28;119971;-75
2022/09/28 12:40:51;;;;;;;;;;;;;;;17.23;59.89;99226.06;4942665;28;120272;-75
2022/09/28 12:43:23;;;;;;;;;;;;;;;17.17;60.16;99215.84;4943020;28;119619;-75
2022/09/28 12:46:00;;;;;;;;;;;;;;;17.23;60.49;99231.63;4946879;28;119916;-75
2022/09/28 12:48:26;;;;;;;;;;;;;;;17.27;59.87;99227.28;4948505;28;120362;-73
2022/09/28 12:50:57;;;;;;;;;;;;;;;17.33;59.88;99230.69;4947102;28;119866;-75